createdAt,value
2019-02-05T00:01:14.162Z,101616.09
2019-02-05T00:03:41.656Z,101612.65
2019-02-05T00:06:09.571Z,101611.76
2019-02-05T00:08:38.057Z,101608.26
2019-02-05T00:11:05.925Z,101610.33
2019-02-05T00:13:33.902Z,101607.64
2019-02-05T00:16:01.343Z,101609.63
2019-02-05T00:18:29.035Z,101612.02
2019-02-05T00:20:56.386Z,101614.55
2019-02-05T00:23:24.278Z,101609.33
2019-02-05T00:25:52.854Z,101606.92
2019-02-05T00:28:20.218Z,101608.98
2019-02-05T00:30:47.807Z,101614.34
2019-02-05T00:33:15.610Z,101622.84
2019-02-05T00:35:44.899Z,101623.05
2019-02-05T00:38:12.533Z,101618.44
2019-02-05T00:40:40.237Z,101620.41
2019-02-05T00:43:07.862Z,101617.98
2019-02-05T00:45:35.570Z,101613.38
2019-02-05T00:48:04.534Z,101616.91
2019-02-05T00:50:31.890Z,101614.99
2019-02-05T00:52:59.540Z,101609.98
2019-02-05T00:55:27.443Z,101613.45
2019-02-05T00:57:55.098Z,101619.22
2019-02-05T01:00:28.303Z,101613.37
2019-02-05T01:02:56.358Z,101613.61
2019-02-05T01:05:23.803Z,101606.78
2019-02-05T01:07:52.043Z,101597.70
2019-02-05T01:10:21.280Z,101591.81
2019-02-05T01:12:48.752Z,101593.01
2019-02-05T01:15:16.909Z,101598.92
2019-02-05T01:17:44.771Z,101588.12
2019-02-05T01:20:15.280Z,101589.37
2019-02-05T01:22:43.059Z,101594.56
2019-02-05T01:25:10.652Z,101594.77
2019-02-05T01:27:38.654Z,101594.42
2019-02-05T01:30:09.550Z,101598.73
2019-02-05T01:32:36.956Z,101605.45
2019-02-05T01:35:05.001Z,101604.11
2019-02-05T01:37:32.625Z,101605.27
2019-02-05T01:40:00.735Z,101603.99
2019-02-05T01:42:28.465Z,101605.77
2019-02-05T01:44:56.851Z,101599.65
2019-02-05T01:47:24.473Z,101599.91
2019-02-05T01:49:51.707Z,101605.00
2019-02-05T01:52:19.802Z,101600.30
2019-02-05T01:54:47.427Z,101594.65
2019-02-05T01:57:15.207Z,101600.83
2019-02-05T01:59:42.736Z,101591.17
2019-02-05T02:02:11.080Z,101586.20
2019-02-05T02:04:38.865Z,101584.00
2019-02-05T02:07:06.313Z,101579.56
2019-02-05T02:09:33.866Z,101577.25
2019-02-05T02:12:01.847Z,101568.66
2019-02-05T02:14:29.447Z,101568.16
2019-02-05T02:16:57.411Z,101568.76
2019-02-05T02:19:26.323Z,101560.86
2019-02-05T02:21:53.877Z,101564.98
2019-02-05T02:24:21.261Z,101560.86
2019-02-05T02:26:52.087Z,101560.93
2019-02-05T02:29:18.407Z,101560.90
2019-02-05T02:31:46.118Z,101561.73
2019-02-05T02:34:13.634Z,101551.09
2019-02-05T02:36:41.161Z,101547.67
2019-02-05T02:39:08.563Z,101551.36
2019-02-05T02:41:35.817Z,101562.78
2019-02-05T02:44:03.709Z,101568.89
2019-02-05T02:46:31.559Z,101569.81
2019-02-05T02:48:59.696Z,101570.41
2019-02-05T02:51:27.101Z,101573.52
2019-02-05T02:53:54.880Z,101576.72
2019-02-05T02:56:22.556Z,101577.36
2019-02-05T02:58:50.038Z,101590.02
2019-02-05T03:01:17.617Z,101590.23
2019-02-05T03:03:45.355Z,101589.09
2019-02-05T03:06:13.373Z,101575.09
2019-02-05T03:08:41.547Z,101571.84
2019-02-05T03:11:09.025Z,101574.53
2019-02-05T03:13:37.402Z,101578.27
2019-02-05T03:16:04.956Z,101578.06
2019-02-05T03:18:32.695Z,101586.33
2019-02-05T03:21:01.848Z,101583.14
2019-02-05T03:23:29.067Z,101584.77
2019-02-05T03:25:56.293Z,101576.13
2019-02-05T03:28:23.803Z,101581.59
2019-02-05T03:30:51.344Z,101576.91
2019-02-05T03:33:21.199Z,101582.99
2019-02-05T03:35:48.460Z,101588.75
2019-02-05T03:38:16.602Z,101583.41
2019-02-05T03:41:05.107Z,101578.87
2019-02-05T03:43:34.613Z,101581.38
2019-02-05T03:46:08.065Z,101583.94
2019-02-05T03:48:36.205Z,101574.02
2019-02-05T03:52:25.682Z,101571.05
2019-02-05T03:55:35.878Z,101572.17
2019-02-05T03:59:11.345Z,101570.92
2019-02-05T04:02:25.447Z,101573.33
2019-02-05T04:05:52.310Z,101572.27
2019-02-05T04:09:20.698Z,101568.66
2019-02-05T04:12:27.875Z,101567.94
2019-02-05T04:15:39.785Z,101575.50
2019-02-05T04:19:05.276Z,101573.03
2019-02-05T04:22:31.768Z,101577.27
2019-02-05T04:25:46.634Z,101569.63
2019-02-05T04:29:11.702Z,101568.93
2019-02-05T04:32:23.615Z,101579.04
2019-02-05T04:35:20.119Z,101576.50
2019-02-05T04:38:36.798Z,101577.91
2019-02-05T04:41:49.351Z,101578.75
2019-02-05T04:45:34.120Z,101579.62
2019-02-05T04:48:48.877Z,101585.85
2019-02-05T04:51:48.642Z,101578.40
2019-02-05T04:55:19.178Z,101579.82
2019-02-05T04:58:48.458Z,101577.56
2019-02-05T05:02:16.673Z,101578.42
2019-02-05T05:05:34.185Z,101592.20
2019-02-05T05:08:29.388Z,101590.78
2019-02-05T05:10:58.325Z,101592.84
2019-02-05T05:13:26.200Z,101587.84
2019-02-05T05:15:54.901Z,101592.70
2019-02-05T05:18:22.024Z,101594.23
2019-02-05T05:20:49.773Z,101603.80
2019-02-05T05:23:18.180Z,101599.80
2019-02-05T05:25:46.322Z,101592.48
2019-02-05T05:28:14.030Z,101600.83
2019-02-05T05:30:42.069Z,101599.21
2019-02-05T05:33:12.792Z,101607.13
2019-02-05T05:35:44.327Z,101604.61
2019-02-05T05:38:09.835Z,101603.55
2019-02-05T05:40:38.054Z,101596.45
2019-02-05T05:43:05.931Z,101601.83
2019-02-05T05:45:33.297Z,101601.74
2019-02-05T05:48:00.679Z,101603.97
2019-02-05T05:50:29.243Z,101610.02
2019-02-05T05:52:57.377Z,101606.48
2019-02-05T05:55:24.917Z,101602.94
2019-02-05T05:57:52.672Z,101603.44
2019-02-05T06:00:20.092Z,101602.97
2019-02-05T06:02:47.614Z,101612.40
2019-02-05T06:05:18.108Z,101614.00
2019-02-05T06:07:45.863Z,101615.72
2019-02-05T06:10:14.736Z,101626.77
2019-02-05T06:12:42.295Z,101629.77
2019-02-05T06:15:10.558Z,101621.86
2019-02-05T06:17:38.366Z,101628.31
2019-02-05T06:20:10.204Z,101631.88
2019-02-05T06:22:38.122Z,101633.20
2019-02-05T06:25:05.825Z,101628.92
2019-02-05T06:27:33.989Z,101626.61
2019-02-05T06:30:01.544Z,101622.47
2019-02-05T06:32:29.288Z,101625.91
2019-02-05T06:34:57.213Z,101632.64
2019-02-05T06:37:24.694Z,101631.48
2019-02-05T06:39:52.559Z,101627.31
2019-02-05T06:42:20.248Z,101627.20
2019-02-05T06:44:48.625Z,101630.69
2019-02-05T06:47:16.893Z,101635.82
2019-02-05T06:49:44.185Z,101640.19
2019-02-05T06:52:11.863Z,101638.28
2019-02-05T06:54:39.118Z,101633.33
2019-02-05T06:57:06.541Z,101631.09
2019-02-05T06:59:34.305Z,101635.82
2019-02-05T07:02:01.974Z,101636.00
2019-02-05T07:04:29.803Z,101630.48
2019-02-05T07:06:57.389Z,101640.11
2019-02-05T07:09:28.867Z,101642.03
2019-02-05T07:11:56.298Z,101639.89
2019-02-05T07:14:23.650Z,101644.12
2019-02-05T07:16:51.548Z,101653.56
2019-02-05T07:19:18.815Z,101648.91
2019-02-05T07:21:46.992Z,101659.01
2019-02-05T07:24:15.361Z,101665.83
2019-02-05T07:26:43.096Z,101660.61
2019-02-05T07:29:10.459Z,101666.58
2019-02-05T07:31:38.126Z,101669.33
2019-02-05T07:34:06.134Z,101673.38
2019-02-05T07:36:34.152Z,101670.68
2019-02-05T07:39:01.697Z,101670.34
2019-02-05T07:41:29.956Z,101678.11
2019-02-05T07:43:57.572Z,101676.30
2019-02-05T07:46:24.900Z,101687.16
2019-02-05T07:48:52.362Z,101690.38
2019-02-05T07:51:20.330Z,101686.65
2019-02-05T07:53:47.771Z,101688.50
2019-02-05T07:56:15.444Z,101688.06
2019-02-05T07:58:42.818Z,101694.42
2019-02-05T08:01:10.838Z,101697.12
2019-02-05T08:03:38.455Z,101704.37
2019-02-05T08:06:06.904Z,101711.13
2019-02-05T08:08:35.620Z,101706.91
2019-02-05T08:11:04.817Z,101710.00
2019-02-05T08:13:32.638Z,101711.59
2019-02-05T08:16:00.026Z,101713.14
2019-02-05T08:18:28.763Z,101716.36
2019-02-05T08:20:58.554Z,101720.59
2019-02-05T08:23:26.891Z,101729.75
2019-02-05T08:25:54.525Z,101723.50
2019-02-05T08:28:22.195Z,101725.02
2019-02-05T08:30:50.482Z,101733.30
2019-02-05T08:33:18.053Z,101721.81
2019-02-05T08:35:45.613Z,101720.97
2019-02-05T08:38:13.830Z,101723.26
2019-02-05T08:40:41.588Z,101726.98
2019-02-05T08:43:09.084Z,101730.57
2019-02-05T08:45:38.175Z,101726.73
2019-02-05T08:48:06.999Z,101729.94
2019-02-05T08:50:35.299Z,101734.08
2019-02-05T08:53:03.163Z,101729.69
2019-02-05T08:55:31.214Z,101728.75
2019-02-05T08:58:02.245Z,101725.91
2019-02-05T09:00:32.854Z,101727.60
2019-02-05T09:03:01.447Z,101724.59
2019-02-05T09:05:29.559Z,101723.23
2019-02-05T09:07:57.412Z,101725.30
2019-02-05T09:10:28.442Z,101725.02
2019-02-05T09:12:56.235Z,101723.66
2019-02-05T09:15:29.427Z,101726.23
2019-02-05T09:17:54.077Z,101725.77
2019-02-05T09:20:23.222Z,101726.13
2019-02-05T09:22:53.070Z,101731.04
2019-02-05T09:25:20.699Z,101731.23
2019-02-05T09:27:48.153Z,101735.32
2019-02-05T09:30:28.585Z,101735.85
2019-02-05T09:32:58.938Z,101742.27
2019-02-05T09:35:26.881Z,101740.92
2019-02-05T09:37:57.836Z,101743.98
2019-02-05T09:40:29.766Z,101752.13
2019-02-05T09:42:58.167Z,101744.34
2019-02-05T09:45:27.869Z,101748.91
2019-02-05T09:47:55.590Z,101753.16
2019-02-05T09:50:23.997Z,101755.20
2019-02-05T09:52:51.640Z,101753.30
2019-02-05T09:55:19.583Z,101759.25
2019-02-05T09:57:47.807Z,101756.02
2019-02-05T10:00:24.945Z,101753.62
2019-02-05T10:02:53.126Z,101760.55
2019-02-05T10:05:22.167Z,101759.17
2019-02-05T10:07:49.812Z,101762.05
2019-02-05T10:10:18.227Z,101758.97
2019-02-05T10:12:47.048Z,101763.55
2019-02-05T10:15:24.900Z,101774.89
2019-02-05T10:17:52.362Z,101777.75
2019-02-05T10:20:21.232Z,101780.95
2019-02-05T10:22:49.460Z,101786.67
2019-02-05T10:25:17.205Z,101785.31
2019-02-05T10:27:45.470Z,101788.02
2019-02-05T10:30:23.055Z,101785.67
2019-02-05T10:32:51.022Z,101789.00
2019-02-05T10:35:19.854Z,101796.49
2019-02-05T10:37:47.655Z,101786.75
2019-02-05T10:40:15.465Z,101779.39
2019-02-05T10:42:44.233Z,101783.77
2019-02-05T10:45:13.251Z,101785.02
2019-02-05T10:47:41.128Z,101787.01
2019-02-05T10:50:11.466Z,101786.95
2019-02-05T10:52:39.544Z,101785.00
2019-02-05T10:55:09.812Z,101793.74
2019-02-05T10:57:38.000Z,101791.08
2019-02-05T11:00:11.058Z,101790.23
2019-02-05T11:02:38.527Z,101783.99
2019-02-05T11:05:07.662Z,101792.38
2019-02-05T11:07:36.782Z,101788.50
2019-02-05T11:10:08.062Z,101785.91
2019-02-05T11:12:35.605Z,101781.80
2019-02-05T11:15:06.026Z,101772.70
2019-02-05T11:17:34.213Z,101780.45
2019-02-05T11:20:01.721Z,101779.73
2019-02-05T11:22:29.595Z,101777.43
2019-02-05T11:24:57.599Z,101764.95
2019-02-05T11:27:25.874Z,101760.80
2019-02-05T11:29:53.210Z,101758.05
2019-02-05T11:32:20.701Z,101761.58
2019-02-05T11:34:48.618Z,101763.46
2019-02-05T11:37:16.911Z,101758.92
2019-02-05T11:39:44.719Z,101757.66
2019-02-05T11:42:12.656Z,101751.89
2019-02-05T11:44:40.115Z,101739.08
2019-02-05T11:47:08.717Z,101734.27
2019-02-05T11:49:36.149Z,101743.47
2019-02-05T11:52:06.047Z,101743.39
2019-02-05T11:54:33.420Z,101742.94
2019-02-05T11:57:00.958Z,101741.19
2019-02-05T11:59:28.283Z,101742.78
2019-02-05T12:01:56.228Z,101748.52
2019-02-05T12:04:24.209Z,101753.77
2019-02-05T12:06:51.702Z,101745.86
2019-02-05T12:09:23.182Z,101749.33
2019-02-05T12:11:50.851Z,101747.61
2019-02-05T12:14:18.685Z,101748.45
2019-02-05T12:16:46.425Z,101747.05
2019-02-05T12:19:13.899Z,101746.38
2019-02-05T12:21:41.287Z,101735.81
2019-02-05T12:24:09.536Z,101736.06
2019-02-05T12:26:37.178Z,101737.68
2019-02-05T12:29:04.961Z,101730.48
2019-02-05T12:31:32.593Z,101727.17
2019-02-05T12:33:59.922Z,101729.45
2019-02-05T12:36:27.812Z,101730.98
2019-02-05T12:38:55.705Z,101725.00
2019-02-05T12:41:23.514Z,101725.98
2019-02-05T12:43:51.414Z,101723.12
2019-02-05T12:46:19.458Z,101716.39
2019-02-05T12:48:47.045Z,101718.66
2019-02-05T12:51:15.095Z,101715.34
2019-02-05T12:53:42.501Z,101720.41
2019-02-05T12:56:11.474Z,101719.69
2019-02-05T12:58:39.339Z,101711.66
2019-02-05T13:01:07.560Z,101718.39
2019-02-05T13:03:35.389Z,101724.13
2019-02-05T13:06:05.214Z,101723.30
2019-02-05T13:08:33.180Z,101720.23
2019-02-05T13:11:01.113Z,101712.09
2019-02-05T13:13:30.086Z,101716.31
2019-02-05T13:15:57.682Z,101712.41
2019-02-05T13:18:25.377Z,101702.08
2019-02-05T13:20:53.142Z,101708.89
2019-02-05T13:23:20.897Z,101703.38
2019-02-05T13:25:48.678Z,101708.32
2019-02-05T13:28:16.749Z,101696.25
2019-02-05T13:30:44.587Z,101697.66
2019-02-05T13:33:14.580Z,101690.53
2019-02-05T13:35:42.821Z,101699.88
2019-02-05T13:38:10.338Z,101699.61
2019-02-05T13:40:38.140Z,101706.39
2019-02-05T13:43:06.092Z,101703.59
2019-02-05T13:45:34.754Z,101708.85
2019-02-05T13:48:04.644Z,101699.36
2019-02-05T13:50:33.772Z,101701.09
2019-02-05T13:53:02.233Z,101704.02
2019-02-05T13:55:39.795Z,101705.59
2019-02-05T13:58:07.852Z,101705.33
2019-02-05T14:00:44.912Z,101706.58
2019-02-05T14:03:12.829Z,101705.98
2019-02-05T14:05:41.155Z,101707.38
2019-02-05T14:08:09.543Z,101706.48
2019-02-05T14:10:38.001Z,101708.84
2019-02-05T14:13:06.439Z,101705.06
2019-02-05T14:15:36.426Z,101707.91
2019-02-05T14:18:06.012Z,101703.73
2019-02-05T14:20:37.012Z,101701.09
2019-02-05T14:23:04.913Z,101701.87
2019-02-05T14:25:32.870Z,101703.82
2019-02-05T14:28:01.350Z,101707.96
2019-02-05T14:30:54.063Z,101706.34
2019-02-05T14:33:23.154Z,101703.41
2019-02-05T14:35:50.867Z,101697.14
2019-02-05T14:38:18.606Z,101696.42
2019-02-05T14:40:46.833Z,101697.84
2019-02-05T14:43:14.488Z,101698.51
2019-02-05T14:45:42.409Z,101705.42
2019-02-05T14:48:10.476Z,101706.11
2019-02-05T14:50:39.063Z,101699.95
2019-02-05T14:53:08.270Z,101700.59
2019-02-05T14:55:38.942Z,101694.44
2019-02-05T14:58:09.251Z,101693.98
2019-02-05T15:00:37.873Z,101690.84
2019-02-05T15:03:10.772Z,101696.08
2019-02-05T15:05:39.328Z,101692.11
2019-02-05T15:08:07.967Z,101692.88
2019-02-05T15:10:35.444Z,101701.25
2019-02-05T15:13:04.660Z,101705.27
2019-02-05T15:15:33.026Z,101699.53
2019-02-05T15:18:00.936Z,101699.98
2019-02-05T15:20:34.810Z,101699.38
2019-02-05T15:23:04.350Z,101705.82
2019-02-05T15:25:32.058Z,101703.14
2019-02-05T15:28:00.118Z,101714.77
2019-02-05T15:30:32.013Z,101714.09
2019-02-05T15:33:17.222Z,101726.55
2019-02-05T15:35:49.567Z,101717.24
2019-02-05T15:38:17.026Z,101728.75
2019-02-05T15:40:44.776Z,101728.81
2019-02-05T15:43:12.219Z,101725.91
2019-02-05T15:45:42.280Z,101727.42
2019-02-05T15:48:10.014Z,101727.69
2019-02-05T15:50:38.027Z,101737.47
2019-02-05T15:53:06.066Z,101739.64
2019-02-05T15:55:33.590Z,101727.61
2019-02-05T15:58:02.116Z,101733.12
2019-02-05T16:00:30.647Z,101732.44
2019-02-05T16:02:58.490Z,101729.80
2019-02-05T16:05:26.096Z,101730.38
2019-02-05T16:07:53.498Z,101728.12
2019-02-05T16:10:20.928Z,101733.09
2019-02-05T16:12:48.307Z,101732.73
2019-02-05T16:15:16.539Z,101734.44
2019-02-05T16:17:43.990Z,101736.59
2019-02-05T16:20:12.215Z,101732.59
2019-02-05T16:22:40.266Z,101724.81
2019-02-05T16:25:10.406Z,101727.83
2019-02-05T16:27:38.098Z,101727.53
2019-02-05T16:30:17.766Z,101731.95
2019-02-05T16:32:46.166Z,101736.92
2019-02-05T16:35:14.165Z,101728.13
2019-02-05T16:37:41.879Z,101724.89
2019-02-05T16:40:14.504Z,101737.53
2019-02-05T16:42:42.677Z,101734.69
2019-02-05T16:45:14.091Z,101734.55
2019-02-05T16:47:41.842Z,101730.84
2019-02-05T16:50:17.076Z,101735.27
2019-02-05T16:52:45.068Z,101738.51
2019-02-05T16:55:12.503Z,101729.69
2019-02-05T16:57:39.959Z,101732.66
2019-02-05T17:00:31.095Z,101733.45
2019-02-05T17:02:59.111Z,101740.12
2019-02-05T17:05:29.338Z,101741.46
2019-02-05T17:07:57.179Z,101743.52
2019-02-05T17:10:26.604Z,101748.30
2019-02-05T17:12:54.309Z,101755.47
2019-02-05T17:15:21.709Z,101750.34
2019-02-05T17:17:49.414Z,101756.47
2019-02-05T17:20:21.406Z,101755.48
2019-02-05T17:22:49.690Z,101754.12
2019-02-05T17:25:18.704Z,101754.12
2019-02-05T17:27:46.465Z,101753.94
2019-02-05T17:30:20.812Z,101754.27
2019-02-05T17:32:48.521Z,101758.53
2019-02-05T17:35:16.396Z,101762.64
2019-02-05T17:37:44.531Z,101761.10
2019-02-05T17:40:17.223Z,101756.04
2019-02-05T17:42:45.708Z,101755.89
2019-02-05T17:45:20.194Z,101753.88
2019-02-05T17:47:48.413Z,101754.90
2019-02-05T17:50:16.361Z,101758.64
2019-02-05T17:52:43.954Z,101753.91
2019-02-05T17:55:12.084Z,101750.67
2019-02-05T17:57:39.426Z,101751.55
2019-02-05T18:00:16.397Z,101751.38
2019-02-05T18:02:51.383Z,101752.58
2019-02-05T18:05:14.879Z,101759.66
2019-02-05T18:07:42.915Z,101766.30
2019-02-05T18:10:13.375Z,101766.14
2019-02-05T18:12:41.318Z,101769.00
2019-02-05T18:15:15.124Z,101761.05
2019-02-05T18:17:42.497Z,101771.56
2019-02-05T18:20:10.014Z,101766.32
2019-02-05T18:22:37.725Z,101766.32
2019-02-05T18:25:07.148Z,101764.45
2019-02-05T18:27:35.773Z,101768.52
2019-02-05T18:30:09.126Z,101766.11
2019-02-05T18:32:37.536Z,101763.25
2019-02-05T18:35:06.836Z,101768.68
2019-02-05T18:37:34.565Z,101767.47
2019-02-05T18:40:04.621Z,101759.00
2019-02-05T18:42:32.283Z,101762.22
2019-02-05T18:44:59.762Z,101758.16
2019-02-05T18:47:27.693Z,101757.28
2019-02-05T18:49:55.312Z,101748.47
2019-02-05T18:52:23.667Z,101758.64
2019-02-05T18:54:51.446Z,101756.45
2019-02-05T18:57:25.458Z,101750.34
2019-02-05T18:59:53.317Z,101749.83
2019-02-05T19:02:20.691Z,101745.77
2019-02-05T19:04:48.293Z,101751.19
2019-02-05T19:07:15.706Z,101751.70
2019-02-05T19:09:43.009Z,101755.63
2019-02-05T19:12:10.511Z,101755.26
2019-02-05T19:14:38.834Z,101753.56
2019-02-05T19:17:06.518Z,101754.41
2019-02-05T19:19:34.581Z,101755.92
2019-02-05T19:22:02.393Z,101757.12
2019-02-05T19:24:38.513Z,101752.91
2019-02-05T19:27:05.897Z,101753.23
2019-02-05T19:29:34.711Z,101753.42
2019-02-05T19:32:02.740Z,101754.92
2019-02-05T19:34:30.618Z,101757.16
2019-02-05T19:36:58.344Z,101753.09
2019-02-05T19:39:26.349Z,101753.92
2019-02-05T19:41:54.228Z,101760.89
2019-02-05T19:44:21.661Z,101761.55
2019-02-05T19:46:53.566Z,101762.75
2019-02-05T19:49:42.674Z,101755.80
2019-02-05T19:52:10.197Z,101759.70
2019-02-05T19:54:37.846Z,101751.93
2019-02-05T19:57:05.943Z,101755.13
2019-02-05T19:59:33.577Z,101751.39
2019-02-05T20:02:01.909Z,101749.52
2019-02-05T20:04:29.863Z,101746.48
2019-02-05T20:06:57.288Z,101744.66
2019-02-05T20:09:25.026Z,101738.54
2019-02-05T20:11:53.171Z,101741.09
2019-02-05T20:14:20.642Z,101737.38
2019-02-05T20:16:48.432Z,101737.73
2019-02-05T20:19:15.811Z,101738.91
2019-02-05T20:21:43.951Z,101728.89
2019-02-05T20:24:11.377Z,101727.72
2019-02-05T20:26:38.851Z,101728.58
2019-02-05T20:29:06.553Z,101727.73
2019-02-05T20:31:33.719Z,101732.33
2019-02-05T20:34:01.598Z,101730.95
2019-02-05T20:36:29.238Z,101731.97
2019-02-05T20:38:57.405Z,101738.06
2019-02-05T20:41:25.046Z,101740.09
2019-02-05T20:43:52.534Z,101748.77
2019-02-05T20:46:20.419Z,101746.20
2019-02-05T20:48:48.329Z,101747.06
2019-02-05T20:51:16.272Z,101743.66
2019-02-05T20:53:44.370Z,101743.83
2019-02-05T20:56:14.730Z,101744.19
2019-02-05T20:58:42.886Z,101756.69
2019-02-05T21:01:11.138Z,101756.20
2019-02-05T21:03:39.207Z,101751.95
2019-02-05T21:06:07.080Z,101752.29
2019-02-05T21:08:35.070Z,101752.64
2019-02-05T21:11:02.475Z,101749.42
2019-02-05T21:13:31.306Z,101752.98
2019-02-05T21:15:58.918Z,101756.84
2019-02-05T21:18:26.982Z,101745.52
2019-02-05T21:20:55.130Z,101743.45
2019-02-05T21:23:22.362Z,101746.19
2019-02-05T21:25:49.518Z,101740.94
2019-02-05T21:28:17.120Z,101741.92
2019-02-05T21:30:45.019Z,101742.95
2019-02-05T21:33:12.734Z,101746.84
2019-02-05T21:35:40.513Z,101742.42
2019-02-05T21:38:08.287Z,101746.83
2019-02-05T21:40:35.645Z,101742.42
2019-02-05T21:43:03.399Z,101738.03
2019-02-05T21:45:31.579Z,101737.67
2019-02-05T21:47:59.076Z,101739.36
2019-02-05T21:50:26.995Z,101736.31
2019-02-05T21:52:54.644Z,101734.30
2019-02-05T21:55:22.316Z,101731.26
2019-02-05T21:57:49.937Z,101735.50
2019-02-05T22:00:26.915Z,101730.08
2019-02-05T22:02:54.986Z,101731.23
2019-02-05T22:05:22.996Z,101723.98
2019-02-05T22:07:50.734Z,101733.42
2019-02-05T22:10:18.995Z,101721.61
2019-02-05T22:12:46.640Z,101722.45
2019-02-05T22:15:14.815Z,101724.13
2019-02-05T22:17:42.644Z,101723.44
2019-02-05T22:20:16.212Z,101720.72
2019-02-05T22:22:44.621Z,101718.73
2019-02-05T22:25:21.685Z,101713.95
2019-02-05T22:27:49.398Z,101721.23
2019-02-05T22:30:31.028Z,101707.51
2019-02-05T22:32:58.651Z,101710.04
2019-02-05T22:35:26.460Z,101710.17
2019-02-05T22:37:54.703Z,101706.27
2019-02-05T22:40:23.850Z,101710.30
2019-02-05T22:42:51.812Z,101707.04
2019-02-05T22:45:20.234Z,101707.20
2019-02-05T22:47:48.366Z,101705.34
2019-02-05T22:50:19.334Z,101707.92
2019-02-05T22:52:47.138Z,101711.39
2019-02-05T22:55:15.085Z,101706.33
2019-02-05T22:57:43.119Z,101716.34
2019-02-05T23:00:49.799Z,101712.02
2019-02-05T23:03:31.925Z,101714.41
2019-02-05T23:06:57.822Z,101721.88
2019-02-05T23:09:44.004Z,101717.92
2019-02-05T23:12:40.447Z,101722.97
2019-02-05T23:15:18.438Z,101724.03
2019-02-05T23:17:46.552Z,101722.20
2019-02-05T23:20:24.975Z,101727.27
2019-02-05T23:22:52.857Z,101718.42
2019-02-05T23:25:20.279Z,101723.92
2019-02-05T23:27:48.243Z,101724.83
2019-02-05T23:30:24.855Z,101728.97
2019-02-05T23:32:52.293Z,101728.27
2019-02-05T23:35:20.362Z,101727.87
2019-02-05T23:37:48.487Z,101725.31
2019-02-05T23:40:15.962Z,101737.20
2019-02-05T23:42:43.676Z,101734.17
2019-02-05T23:45:11.839Z,101727.58
2019-02-05T23:47:39.199Z,101730.19
2019-02-05T23:50:10.006Z,101727.33
2019-02-05T23:52:37.623Z,101724.95
2019-02-05T23:55:07.893Z,101726.72
2019-02-05T23:57:35.723Z,101726.56
